Time;durP1;ratioP1;P1;durP2;ratioP2;P2;SDS_P1;SDS_P2;PMS_P1;PMS_P2;Temp;Humidity;BMP_temperature;BMP_pressure;BME280_temperature;BME280_humidity;BME280_pressure;Samples;Min_cycle;Max_cycle;Signal;HPM_P1;HPM_P2
2022/10/13 00:01:20;;;;;;;50.30;36.28;;;;;;;12.97;100.00;100344.50;5072230;28;20072;-76
2022/10/13 00:03:47;;;;;;;58.58;37.58;;;;;;;12.98;100.00;100343.53;5071707;28;20887;-74
2022/10/13 00:06:21;;;;;;;56.95;36.42;;;;;;;12.98;100.00;100341.72;5072235;28;20041;-74
2022/10/13 00:08:47;;;;;;;54.85;35.42;;;;;;;12.97;100.00;100350.63;5071584;28;20041;-75
2022/10/13 00:11:21;;;;;;;52.25;34.35;;;;;;;12.96;100.00;100345.50;5072090;28;20025;-75
2022/10/13 00:13:48;;;;;;;52.00;34.47;;;;;;;12.91;100.00;100334.47;5071461;28;20024;-75
2022/10/13 00:16:16;;;;;;;51.28;33.53;;;;;;;12.85;100.00;100335.00;5071224;28;20036;-76
2022/10/13 00:18:42;;;;;;;51.92;33.90;;;;;;;12.86;100.00;100336.69;5071494;28;20085;-75
2022/10/13 00:21:10;;;;;;;55.22;35.78;;;;;;;12.84;100.00;100333.38;5070316;28;20028;-75
2022/10/13 00:23:36;;;;;;;55.47;35.92;;;;;;;12.80;100.00;100331.94;5071363;28;20032;-74
2022/10/13 00:26:04;;;;;;;51.70;34.78;;;;;;;12.84;100.00;100349.25;5075491;28;20036;-75
2022/10/13 00:28:29;;;;;;;51.28;33.95;;;;;;;12.85;100.00;100345.59;5070966;28;20484;-75
2022/10/13 00:30:55;;;;;;;50.60;34.45;;;;;;;12.68;100.00;100350.59;5070066;28;20047;-74
2022/10/13 00:33:20;;;;;;;49.65;33.05;;;;;;;12.64;100.00;100349.22;5071489;28;20032;-74
2022/10/13 00:35:47;;;;;;;56.38;35.42;;;;;;;12.69;100.00;100347.00;5070724;28;20062;-76
2022/10/13 00:38:14;;;;;;;49.17;33.45;;;;;;;12.72;100.00;100345.91;5071544;28;20035;-75
2022/10/13 00:40:58;;;;;;;52.42;33.88;;;;;;;12.79;100.00;100335.56;5071252;28;20033;-75
2022/10/13 00:43:26;;;;;;;51.47;33.35;;;;;;;12.70;100.00;100332.78;5069914;28;20515;-75
2022/10/13 00:45:52;;;;;;;49.08;33.55;;;;;;;12.65;100.00;100335.00;5075277;28;20063;-74
2022/10/13 00:48:22;;;;;;;53.72;34.92;;;;;;;12.57;100.00;100331.34;5071194;28;20451;-74
2022/10/13 00:50:48;;;;;;;50.70;34.08;;;;;;;12.63;100.00;100330.81;5070847;28;20036;-75
2022/10/13 00:53:16;;;;;;;51.78;34.17;;;;;;;12.67;100.00;100338.34;5071428;28;20136;-74
2022/10/13 00:55:44;;;;;;;50.05;34.20;;;;;;;12.59;100.00;100332.06;5070690;28;20024;-75
2022/10/13 00:58:15;;;;;;;51.30;34.35;;;;;;;12.47;100.00;100336.66;5071224;28;20425;-73
2022/10/13 01:00:45;;;;;;;54.67;34.78;;;;;;;12.47;100.00;100333.16;5067107;28;20032;-75
2022/10/13 01:03:16;;;;;;;54.38;35.30;;;;;;;12.51;100.00;100338.03;5075244;28;20036;-74
2022/10/13 01:05:42;;;;;;;53.20;34.45;;;;;;;12.60;100.00;100336.41;5070479;28;20089;-75
2022/10/13 01:08:09;;;;;;;55.47;37.03;;;;;;;12.64;100.00;100338.63;5070919;28;20392;-75
2022/10/13 01:11:02;;;;;;;52.60;36.38;;;;;;;12.68;100.00;100333.88;5070716;28;20142;-75
2022/10/13 01:14:06;;;;;;;56.95;36.97;;;;;;;12.61;100.00;100344.19;5069917;28;20561;-75
2022/10/13 01:16:52;;;;;;;57.72;35.42;;;;;;;12.50;100.00;100336.34;5067549;28;20044;-75
2022/10/13 01:19:36;;;;;;;59.47;35.90;;;;;;;12.47;100.00;100335.81;5068194;28;20049;-74
2022/10/13 01:22:16;;;;;;;57.45;37.05;;;;;;;12.47;100.00;100336.66;5073042;28;20044;-75
2022/10/13 01:24:47;;;;;;;;;;;;;;;12.48;100.00;100338.31;5067567;28;20107;-75
2022/10/13 01:27:21;;;;;;;60.88;36.20;;;;;;;12.54;100.00;100343.06;5070761;28;19946;-75
2022/10/13 01:30:05;;;;;;;58.53;37.80;;;;;;;12.54;100.00;100347.53;5069901;28;20051;-75
2022/10/13 01:32:53;;;;;;;53.15;35.08;;;;;;;12.38;100.00;100358.63;5070135;28;20032;-75
2022/10/13 01:35:39;;;;;;;46.60;32.08;;;;;;;12.19;100.00;100348.00;5066393;28;20049;-75
2022/10/13 01:38:28;;;;;;;49.67;34.03;;;;;;;12.06;100.00;100352.66;5070539;28;20029;-75
2022/10/13 01:41:00;;;;;;;48.13;32.50;;;;;;;11.70;100.00;100349.53;5070657;28;20040;-75
2022/10/13 01:43:39;;;;;;;53.55;33.55;;;;;;;11.39;100.00;100361.00;5071929;28;20033;-75
2022/10/13 01:46:12;;;;;;;57.17;35.58;;;;;;;11.26;100.00;100357.69;5069237;28;20399;-75
2022/10/13 01:48:40;;;;;;;58.60;37.35;;;;;;;11.26;100.00;100362.97;5067378;28;20039;-74
2022/10/13 01:51:11;;;;;;;58.40;37.58;;;;;;;11.32;100.00;100355.38;5064883;28;20055;-75
2022/10/13 01:53:37;;;;;;;62.50;39.70;;;;;;;11.42;100.00;100352.84;5066443;28;20047;-75
2022/10/13 01:56:02;;;;;;;60.80;39.22;;;;;;;11.53;100.00;100347.47;5070410;28;20020;-76
2022/10/13 01:58:32;;;;;;;67.60;41.83;;;;;;;11.58;100.00;100347.94;5068723;28;20515;-74
2022/10/13 02:01:09;;;;;;;63.92;41.53;;;;;;;11.59;100.00;100356.69;5074700;28;20484;-75
2022/10/13 02:03:56;;;;;;;61.33;40.08;;;;;;;11.49;100.00;100353.97;5069641;28;20035;-75
2022/10/13 02:07:11;;;;;;;55.22;37.70;;;;;;;11.32;100.00;100359.84;5069186;28;20109;-75
2022/10/13 02:10:01;;;;;;;55.95;37.72;;;;;;;11.33;100.00;100354.44;5064962;28;20064;-75
2022/10/13 02:12:33;;;;;;;55.00;38.28;;;;;;;11.40;100.00;100354.75;5069317;28;20036;-76
2022/10/13 02:15:00;;;;;;;59.40;38.63;;;;;;;11.50;100.00;100345.06;5069302;28;20064;-75
2022/10/13 02:17:26;;;;;;;58.97;39.65;;;;;;;11.65;100.00;100342.97;5070167;28;20074;-75
2022/10/13 02:19:54;;;;;;;60.40;39.38;;;;;;;11.74;100.00;100343.03;5073819;28;20043;-75
2022/10/13 02:22:20;;;;;;;51.45;38.00;;;;;;;11.83;100.00;100336.97;5070631;28;20464;-75
2022/10/13 02:24:46;;;;;;;57.45;38.47;;;;;;;11.93;100.00;100336.16;5069677;28;20131;-75
2022/10/13 02:27:12;;;;;;;52.75;37.17;;;;;;;11.93;100.00;100328.22;5070171;28;20033;-74
2022/10/13 02:29:53;;;;;;;52.78;36.45;;;;;;;11.93;100.00;100317.66;5069667;28;20466;-75
2022/10/13 02:32:19;;;;;;;52.95;36.97;;;;;;;11.96;100.00;100320.06;5068052;28;20041;-73
2022/10/13 02:34:45;;;;;;;50.90;35.03;;;;;;;11.97;100.00;100313.75;5069263;28;20025;-74
2022/10/13 02:37:10;;;;;;;51.95;35.60;;;;;;;11.95;100.00;100307.78;5069736;28;20214;-75
2022/10/13 02:39:36;;;;;;;48.45;35.53;;;;;;;12.02;100.00;100298.31;5069685;28;20056;-75
2022/10/13 02:42:01;;;;;;;52.03;33.75;;;;;;;12.01;100.00;100294.88;5072696;28;20024;-74
2022/10/13 02:44:26;;;;;;;53.28;35.90;;;;;;;12.02;100.00;100287.75;5073984;28;20071;-75
2022/10/13 02:46:52;;;;;;;51.35;34.33;;;;;;;12.04;100.00;100285.81;5073724;28;20048;-75
2022/10/13 02:49:17;;;;;;;51.53;36.33;;;;;;;12.03;100.00;100290.25;5073945;28;20028;-75
2022/10/13 02:51:43;;;;;;;52.20;34.15;;;;;;;12.06;100.00;100289.19;5067728;28;20111;-76
2022/10/13 02:54:08;;;;;;;48.15;33.10;;;;;;;12.05;100.00;100282.19;5073925;28;20092;-75
2022/10/13 02:56:34;;;;;;;55.35;36.17;;;;;;;12.07;100.00;100277.63;5073330;28;20021;-75
2022/10/13 02:58:59;;;;;;;52.88;33.42;;;;;;;12.09;100.00;100279.16;5073854;28;20064;-74
2022/10/13 03:01:24;;;;;;;47.97;33.70;;;;;;;12.13;100.00;100271.78;5073521;28;20036;-73
2022/10/13 03:03:50;;;;;;;50.53;34.30;;;;;;;12.15;100.00;100273.31;5073188;28;20031;-76
2022/10/13 03:06:15;;;;;;;51.65;34.38;;;;;;;12.12;100.00;100270.13;5071801;28;20025;-75
2022/10/13 03:08:41;;;;;;;48.72;34.53;;;;;;;12.09;100.00;100273.00;5072907;28;20435;-75
2022/10/13 03:11:06;;;;;;;45.25;33.03;;;;;;;11.93;100.00;100277.97;5073668;28;20043;-76
2022/10/13 03:13:32;;;;;;;44.00;31.83;;;;;;;11.81;100.00;100272.78;5073199;28;20060;-76
2022/10/13 03:16:05;;;;;;;39.70;29.63;;;;;;;11.63;100.00;100271.72;5075243;28;20071;-75
2022/10/13 03:18:31;;;;;;;39.00;29.77;;;;;;;11.47;100.00;100281.94;5073023;28;20565;-76
2022/10/13 03:21:05;;;;;;;37.78;29.77;;;;;;;11.43;100.00;100293.69;5072725;28;20029;-75
2022/10/13 03:23:32;;;;;;;38.63;29.70;;;;;;;11.33;100.00;100290.19;5072602;28;20033;-75
2022/10/13 03:25:58;;;;;;;46.55;30.80;;;;;;;11.09;100.00;100296.56;5073184;28;20051;-75
2022/10/13 03:28:23;;;;;;;47.72;32.40;;;;;;;10.98;100.00;100296.59;5073138;28;20036;-75
2022/10/13 03:30:50;;;;;;;50.05;33.00;;;;;;;10.95;100.00;100298.69;5072969;28;20039;-76
2022/10/13 03:33:15;;;;;;;50.75;33.72;;;;;;;10.81;100.00;100294.53;5073125;28;20152;-75
2022/10/13 03:35:41;;;;;;;57.05;34.30;;;;;;;10.87;100.00;100301.94;5076822;28;20044;-75
2022/10/13 03:38:08;;;;;;;48.85;33.85;;;;;;;10.92;100.00;100291.00;5072818;28;20040;-75
2022/10/13 03:40:35;;;;;;;44.58;31.30;;;;;;;10.78;100.00;100293.97;5072515;28;20037;-75
2022/10/13 03:43:01;;;;;;;45.60;31.92;;;;;;;10.73;100.00;100291.66;5072814;28;20028;-74
2022/10/13 03:45:27;;;;;;;42.08;31.88;;;;;;;10.56;100.00;100289.56;5072639;28;20115;-75
2022/10/13 03:47:52;;;;;;;39.85;30.98;;;;;;;10.58;100.00;100296.41;5072584;28;20127;-74
2022/10/13 03:50:18;;;;;;;46.22;32.00;;;;;;;10.53;100.00;100295.13;5072866;28;20028;-74
2022/10/13 03:52:44;;;;;;;55.60;31.65;;;;;;;10.47;100.00;100296.44;5071156;28;20035;-74
2022/10/13 03:55:09;;;;;;;48.97;32.75;;;;;;;10.33;100.00;100293.22;5076630;28;20052;-74
2022/10/13 03:57:35;;;;;;;50.53;34.63;;;;;;;10.25;100.00;100286.75;5072175;28;20028;-74
2022/10/13 04:00:00;;;;;;;48.25;34.10;;;;;;;10.21;100.00;100282.69;5072716;28;20397;-74
2022/10/13 04:02:27;;;;;;;51.72;37.67;;;;;;;10.25;100.00;100278.84;5072539;28;20032;-74
2022/10/13 04:04:53;;;;;;;59.42;39.20;;;;;;;10.38;100.00;100269.94;5070600;28;20958;-75
2022/10/13 04:07:18;;;;;;;53.40;37.90;;;;;;;10.40;100.00;100274.16;5071997;28;20044;-74
2022/10/13 04:09:44;;;;;;;52.78;38.03;;;;;;;10.50;100.00;100274.22;5071865;28;20070;-74
2022/10/13 04:12:09;;;;;;;54.22;38.60;;;;;;;10.59;100.00;100278.78;5072371;28;20131;-74
2022/10/13 04:14:35;;;;;;;51.58;39.00;;;;;;;10.63;100.00;100285.47;5071762;28;20032;-73
2022/10/13 04:17:06;;;;;;;46.42;34.95;;;;;;;10.66;100.00;100287.88;5067571;28;20108;-74
2022/10/13 04:19:32;;;;;;;50.20;36.20;;;;;;;10.68;100.00;100284.13;5071056;28;20067;-75
2022/10/13 04:22:02;;;;;;;47.77;35.50;;;;;;;10.73;100.00;100286.38;5071264;28;20044;-74
2022/10/13 04:24:27;;;;;;;46.70;35.58;;;;;;;10.79;100.00;100279.75;5071187;28;20278;-74
2022/10/13 04:26:53;;;;;;;43.70;33.70;;;;;;;10.82;100.00;100280.38;5075583;28;20104;-74
2022/10/13 04:29:18;;;;;;;42.72;33.40;;;;;;;10.78;100.00;100289.47;5071523;28;20081;-74
2022/10/13 04:31:45;;;;;;;45.50;34.22;;;;;;;10.78;100.00;100278.94;5070954;28;20025;-74
2022/10/13 04:34:11;;;;;;;46.45;35.47;;;;;;;10.83;100.00;100282.06;5071678;28;20033;-74
2022/10/13 04:36:36;;;;;;;42.88;32.53;;;;;;;10.82;100.00;100290.09;5070652;28;20081;-74
2022/10/13 04:39:02;;;;;;;44.78;33.03;;;;;;;10.87;100.00;100288.75;5071377;28;20021;-73
2022/10/13 04:41:28;;;;;;;45.70;33.55;;;;;;;10.90;100.00;100282.34;5070889;28;20037;-74
2022/10/13 04:43:54;;;;;;;42.85;33.22;;;;;;;10.91;100.00;100279.59;5070962;28;20522;-74
2022/10/13 04:46:22;;;;;;;47.60;33.85;;;;;;;10.78;100.00;100286.03;5075386;28;20040;-73
2022/10/13 04:48:47;;;;;;;44.58;33.42;;;;;;;10.77;100.00;100287.84;5070881;28;20113;-74
2022/10/13 04:51:19;;;;;;;49.03;34.47;;;;;;;10.72;100.00;100278.63;5070832;28;20074;-74
2022/10/13 04:53:45;;;;;;;60.65;34.42;;;;;;;10.62;100.00;100289.06;5070637;28;20040;-74
2022/10/13 04:56:14;;;;;;;49.30;34.83;;;;;;;10.63;100.00;100280.19;5071103;28;20032;-74
2022/10/13 04:58:42;;;;;;;54.33;35.80;;;;;;;10.54;100.00;100286.25;5066902;28;20036;-73
2022/10/13 05:01:12;;;;;;;50.80;33.63;;;;;;;10.42;100.00;100292.50;5068915;28;20400;-74
2022/10/13 05:03:37;;;;;;;45.90;32.88;;;;;;;10.51;100.00;100286.47;5068155;28;20117;-72
2022/10/13 05:06:03;;;;;;;52.08;33.58;;;;;;;10.56;100.00;100289.56;5071011;28;20075;-73
2022/10/13 05:08:28;;;;;;;49.53;32.90;;;;;;;10.61;100.00;100292.66;5069199;28;20480;-73
2022/10/13 05:10:53;;;;;;;50.58;31.77;;;;;;;10.46;100.00;100299.19;5070413;28;20040;-74
2022/10/13 05:13:19;;;;;;;46.65;31.83;;;;;;;10.51;100.00;100289.09;5070703;28;20044;-73
2022/10/13 05:15:44;;;;;;;50.78;31.63;;;;;;;10.54;100.00;100294.16;5068847;28;20510;-73
2022/10/13 05:18:10;;;;;;;48.55;31.60;;;;;;;10.55;100.00;100295.81;5069936;28;20028;-73
2022/10/13 05:20:35;;;;;;;49.05;32.33;;;;;;;10.65;100.00;100288.84;5069923;28;20040;-73
2022/10/13 05:23:00;;;;;;;49.75;32.20;;;;;;;10.59;100.00;100295.47;5074179;28;20040;-72
2022/10/13 05:25:26;;;;;;;52.42;32.42;;;;;;;10.61;100.00;100293.50;5070494;28;20040;-73
2022/10/13 05:27:52;;;;;;;46.72;31.77;;;;;;;10.57;100.00;100291.25;5069488;28;20032;-74
2022/10/13 05:30:17;;;;;;;47.08;31.10;;;;;;;10.56;100.00;100294.84;5069460;28;20461;-76
2022/10/13 05:32:42;;;;;;;48.47;32.33;;;;;;;10.57;100.00;100296.53;5064074;28;20417;-76
2022/10/13 05:35:08;;;;;;;58.92;35.80;;;;;;;10.53;100.00;100284.56;5069094;28;20025;-75
2022/10/13 05:37:35;;;;;;;55.47;34.97;;;;;;;10.50;100.00;100280.34;5070613;28;20039;-75
2022/10/13 05:40:01;;;;;;;50.55;33.30;;;;;;;10.48;100.00;100276.19;5070286;28;20032;-75
2022/10/13 05:42:28;;;;;;;47.65;32.20;;;;;;;10.52;100.00;100267.03;5056468;28;20118;-78
2022/10/13 05:44:55;;;;;;;51.92;33.55;;;;;;;10.59;100.00;100268.22;5068903;28;20035;-77
2022/10/13 05:47:22;;;;;;;52.35;33.22;;;;;;;10.65;100.00;100267.72;5070450;28;20032;-76
2022/10/13 05:49:47;;;;;;;56.00;34.58;;;;;;;10.64;100.00;100281.88;5069747;28;20039;-81
2022/10/13 05:52:13;;;;;;;54.60;34.05;;;;;;;10.49;100.00;100283.09;5070334;28;20108;-77
2022/10/13 05:54:44;;;;;;;49.08;32.13;;;;;;;10.41;100.00;100290.81;5068245;28;20471;-75
2022/10/13 05:57:23;;;;;;;49.53;33.20;;;;;;;10.22;100.00;100294.94;5067604;28;20036;-75
2022/10/13 06:00:13;;;;;;;52.42;34.15;;;;;;;10.10;100.00;100287.13;5067466;28;20083;-83
2022/10/13 06:02:51;;;;;;;50.17;32.95;;;;;;;10.18;100.00;100290.88;5069355;28;20050;-76
2022/10/13 06:05:20;;;;;;;51.08;33.60;;;;;;;10.30;100.00;100298.78;5067078;28;20789;-73
2022/10/13 06:07:48;;;;;;;48.63;32.40;;;;;;;10.02;100.00;100298.28;5067835;28;20056;-77
2022/10/13 06:10:14;;;;;;;42.83;30.55;;;;;;;9.96;100.00;100306.66;5068994;28;20028;-75
2022/10/13 06:12:40;;;;;;;47.92;32.45;;;;;;;10.09;100.00;100299.47;5068558;28;20033;-75
2022/10/13 06:15:06;;;;;;;46.60;33.22;;;;;;;10.25;100.00;100305.22;5068935;28;20115;-75
2022/10/13 06:17:35;;;;;;;46.92;33.58;;;;;;;10.38;100.00;100307.72;5069092;28;20044;-76
2022/10/13 06:20:00;;;;;;;49.78;32.75;;;;;;;10.51;100.00;100304.94;5070017;28;20132;-76
2022/10/13 06:22:25;;;;;;;50.38;33.33;;;;;;;10.62;100.00;100297.00;5069664;28;20041;-75
2022/10/13 06:24:51;;;;;;;50.95;33.45;;;;;;;10.71;100.00;100298.91;5069288;28;20545;-75
2022/10/13 06:27:16;;;;;;;48.55;33.65;;;;;;;10.83;100.00;100300.53;5069599;28;20036;-76
2022/10/13 06:29:42;;;;;;;48.33;32.58;;;;;;;10.93;100.00;100314.63;5068864;28;20029;-76
2022/10/13 06:32:08;;;;;;;45.25;31.30;;;;;;;11.03;100.00;100312.91;5069182;28;20557;-74
2022/10/13 06:34:33;;;;;;;46.75;31.92;;;;;;;11.06;100.00;100309.19;5068907;28;20066;-76
2022/10/13 06:36:59;;;;;;;48.55;31.73;;;;;;;11.02;100.00;100305.09;5069683;28;20028;-73
2022/10/13 06:39:25;;;;;;;51.28;31.92;;;;;;;11.08;100.00;100302.78;5073446;28;20031;-76
2022/10/13 06:41:51;;;;;;;45.65;31.50;;;;;;;11.15;100.00;100305.75;5068574;28;20504;-76
2022/10/13 06:44:16;;;;;;;44.90;30.90;;;;;;;11.15;100.00;100307.56;5068031;28;20041;-76
2022/10/13 06:46:42;;;;;;;43.58;31.35;;;;;;;11.25;100.00;100309.31;5068851;28;20036;-76
2022/10/13 06:49:09;;;;;;;42.22;31.42;;;;;;;11.30;100.00;100314.22;5067786;28;20078;-75
2022/10/13 06:51:34;;;;;;;47.58;31.35;;;;;;;11.36;100.00;100316.34;5068853;28;20032;-76
2022/10/13 06:54:00;;;;;;;44.42;29.73;;;;;;;11.41;100.00;100316.78;5069431;28;20035;-75
2022/10/13 06:56:28;;;;;;;40.20;29.08;;;;;;;11.47;100.00;100319.75;5069586;28;20081;-76
2022/10/13 06:58:57;;;;;;;38.35;28.13;;;;;;;11.55;100.00;100326.19;5069646;28;20473;-76
2022/10/13 07:01:22;;;;;;;42.17;30.00;;;;;;;11.51;100.00;100320.34;5068589;28;20091;-75
2022/10/13 07:03:48;;;;;;;43.08;29.30;;;;;;;11.48;100.00;100320.59;5068761;28;20064;-76
2022/10/13 07:06:17;;;;;;;42.35;29.70;;;;;;;11.58;100.00;100318.84;5069167;28;20081;-76
2022/10/13 07:08:43;;;;;;;42.42;29.90;;;;;;;11.66;100.00;100316.41;5066861;28;20518;-76
2022/10/13 07:11:13;;;;;;;44.33;30.95;;;;;;;11.77;100.00;100321.63;5072001;28;20099;-75
2022/10/13 07:13:40;;;;;;;43.22;29.83;;;;;;;11.80;100.00;100309.94;5066480;28;20028;-76
2022/10/13 07:16:06;;;;;;;45.03;30.67;;;;;;;11.88;100.00;100313.59;5069109;28;20111;-77
2022/10/13 07:18:32;;;;;;;42.53;29.13;;;;;;;11.90;100.00;100316.94;5074270;28;20107;-77
2022/10/13 07:20:59;;;;;;;41.38;29.30;;;;;;;11.80;100.00;100315.22;5069913;28;20127;-77
2022/10/13 07:23:25;;;;;;;40.17;30.23;;;;;;;11.82;100.00;100319.44;5070095;28;20029;-77
2022/10/13 07:25:51;;;;;;;43.17;30.55;;;;;;;11.85;100.00;100318.31;5069597;28;20502;-77
2022/10/13 07:28:17;;;;;;;43.13;30.40;;;;;;;11.84;100.00;100324.56;5071537;28;20124;-77
2022/10/13 07:30:43;;;;;;;41.35;29.70;;;;;;;11.92;100.00;100334.50;5072174;28;20103;-77
2022/10/13 07:33:09;;;;;;;44.33;30.25;;;;;;;11.97;100.00;100334.94;5072262;28;20123;-76
2022/10/13 07:35:38;;;;;;;46.22;30.65;;;;;;;12.07;100.00;100318.16;5073536;28;20441;-77
2022/10/13 07:38:05;;;;;;;40.70;30.38;;;;;;;12.15;100.00;100317.47;5070838;28;20115;-76
2022/10/13 07:40:30;;;;;;;46.58;30.23;;;;;;;12.21;100.00;100317.75;5071947;28;20040;-76
2022/10/13 07:42:56;;;;;;;44.75;30.42;;;;;;;12.28;100.00;100318.91;5071869;28;20111;-76
2022/10/13 07:45:22;;;;;;;45.67;30.48;;;;;;;12.43;100.00;100313.22;5071989;28;20032;-78
2022/10/13 07:47:47;;;;;;;43.17;32.10;;;;;;;12.55;100.00;100320.91;5070317;28;20492;-76
2022/10/13 07:50:13;;;;;;;49.58;32.80;;;;;;;12.62;100.00;100319.38;5071766;28;20028;-76
2022/10/13 07:52:38;;;;;;;44.67;31.40;;;;;;;12.78;100.00;100320.66;5071724;28;20024;-76
2022/10/13 07:55:05;;;;;;;53.75;32.47;;;;;;;12.84;100.00;100322.78;5075454;28;20469;-75
2022/10/13 07:57:30;;;;;;;47.25;33.30;;;;;;;12.97;100.00;100320.66;5071686;28;20071;-73
2022/10/13 07:59:56;;;;;;;55.22;35.13;;;;;;;13.08;100.00;100316.06;5072117;28;20029;-76
2022/10/13 08:02:21;;;;;;;50.80;35.35;;;;;;;13.15;100.00;100311.06;5071799;28;20087;-76
2022/10/13 08:04:47;;;;;;;55.40;35.72;;;;;;;13.25;100.00;100314.56;5069030;28;20097;-77
2022/10/13 08:07:15;;;;;;;59.70;36.47;;;;;;;13.31;100.00;100310.50;5071604;28;20123;-75
2022/10/13 08:09:40;;;;;;;57.78;37.00;;;;;;;13.20;100.00;100311.47;5071323;28;20108;-76
2022/10/13 08:12:06;;;;;;;56.00;37.33;;;;;;;13.21;100.00;100313.16;5071827;28;20437;-76
2022/10/13 08:14:31;;;;;;;55.45;36.10;;;;;;;13.25;100.00;100330.47;5075391;28;20037;-77
2022/10/13 08:16:57;;;;;;;52.05;34.63;;;;;;;13.18;100.00;100326.69;5071617;28;20024;-77
2022/10/13 08:19:25;;;;;;;56.20;36.03;;;;;;;13.19;100.00;100316.94;5070923;28;20536;-77
2022/10/13 08:21:50;;;;;;;54.25;34.80;;;;;;;13.20;100.00;100308.81;5070478;28;20028;-77
2022/10/13 08:24:17;;;;;;;49.25;32.28;;;;;;;13.26;100.00;100302.13;5071441;28;20100;-77
2022/10/13 08:26:45;;;;;;;49.25;34.22;;;;;;;13.31;100.00;100290.09;5070641;28;20029;-76
2022/10/13 08:29:12;;;;;;;51.67;34.58;;;;;;;13.41;100.00;100285.66;5071522;28;20396;-77
2022/10/13 08:31:40;;;;;;;51.65;34.28;;;;;;;13.53;100.00;100281.84;5070142;28;20122;-77
2022/10/13 08:34:05;;;;;;;57.72;33.13;;;;;;;13.70;100.00;100296.16;5076179;28;20389;-78
2022/10/13 08:36:31;;;;;;;43.55;31.52;;;;;;;13.82;100.00;100294.16;5070103;28;20036;-77
2022/10/13 08:38:56;;;;;;;43.55;30.27;;;;;;;13.83;100.00;100296.69;5070600;28;20029;-77
2022/10/13 08:41:30;;;;;;;48.25;30.83;;;;;;;13.97;100.00;100298.00;5070806;28;20040;-78
2022/10/13 08:44:21;;;;;;;44.22;30.70;;;;;;;14.01;100.00;100294.09;5069855;28;20032;-77
2022/10/13 08:47:14;;;;;;;41.05;29.98;;;;;;;14.07;100.00;100292.69;5067579;28;20036;-76
2022/10/13 08:49:42;;;;;;;46.20;31.20;;;;;;;14.11;100.00;100292.22;5066757;28;20040;-76
2022/10/13 08:52:18;;;;;;;48.15;33.40;;;;;;;14.15;100.00;100293.59;5072198;28;20396;-76
2022/10/13 08:54:44;;;;;;;47.03;30.33;;;;;;;14.20;100.00;100304.59;5067052;28;20025;-76
2022/10/13 08:57:09;;;;;;;45.47;31.45;;;;;;;14.23;100.00;100304.31;5070182;28;20504;-77
2022/10/13 08:59:35;;;;;;;51.25;33.67;;;;;;;14.19;100.00;100297.66;5070256;28;20036;-77
2022/10/13 09:02:08;;;;;;;52.72;33.70;;;;;;;14.27;100.00;100289.75;5070586;28;20028;-76
2022/10/13 09:04:39;;;;;;;44.60;31.05;;;;;;;14.44;100.00;100289.97;5069952;28;20464;-76
2022/10/13 09:07:08;;;;;;;47.65;32.00;;;;;;;14.54;100.00;100280.13;5069659;28;20511;-74
2022/10/13 09:09:33;;;;;;;49.47;32.50;;;;;;;14.58;100.00;100284.16;5069873;28;20029;-77
2022/10/13 09:11:59;;;;;;;51.22;34.42;;;;;;;14.64;100.00;100280.88;5074545;28;20396;-76
2022/10/13 09:14:31;;;;;;;49.67;34.08;;;;;;;14.71;100.00;100279.31;5073416;28;20128;-77
2022/10/13 09:17:19;;;;;;;49.35;32.53;;;;;;;14.75;100.00;100280.66;5073088;28;20029;-77
2022/10/13 09:20:14;;;;;;;52.22;34.78;;;;;;;14.86;100.00;100280.44;5071391;28;20434;-76
2022/10/13 09:22:40;;;;;;;54.92;34.63;;;;;;;15.01;100.00;100286.06;5070186;28;20141;-78
2022/10/13 09:25:05;;;;;;;48.17;33.47;;;;;;;15.06;100.00;100281.94;5072392;28;20056;-79
2022/10/13 09:27:47;;;;;;;53.78;34.78;;;;;;;15.14;100.00;100279.34;5069654;28;20048;-79
2022/10/13 09:30:39;;;;;;;50.17;34.65;;;;;;;15.22;100.00;100275.91;5076515;28;20038;-75
2022/10/13 09:33:07;;;;;;;51.13;35.58;;;;;;;15.28;100.00;100274.44;5072389;28;20035;-78
2022/10/13 09:35:36;;;;;;;54.20;35.80;;;;;;;15.27;100.00;100278.09;5070844;28;20036;-75
2022/10/13 09:38:18;;;;;;;55.10;36.80;;;;;;;15.28;100.00;100274.44;5069781;28;20045;-78
2022/10/13 09:41:07;;;;;;;55.08;36.03;;;;;;;15.34;100.00;100271.16;5066392;28;20109;-74
2022/10/13 09:43:36;;;;;;;54.65;35.72;;;;;;;15.42;100.00;100263.25;5069813;28;20033;-75
2022/10/13 09:46:30;;;;;;;52.88;35.40;;;;;;;15.53;100.00;100263.03;5070914;28;20067;-75
2022/10/13 09:49:27;;;;;;;53.45;35.83;;;;;;;15.62;100.00;100254.09;5070098;28;20044;-74
2022/10/13 09:52:00;;;;;;;52.03;35.45;;;;;;;15.73;100.00;100253.81;5069300;28;20043;-75
2022/10/13 09:54:56;;;;;;;58.30;37.08;;;;;;;15.81;100.00;100245.88;5070418;28;20396;-75
2022/10/13 09:57:42;;;;;;;51.58;34.83;;;;;;;15.85;100.00;100247.22;5067351;28;20048;-76
2022/10/13 10:00:26;;;;;;;54.05;35.40;;;;;;;15.92;100.00;100250.91;5067686;28;20047;-76
2022/10/13 10:03:01;;;;;;;53.75;36.67;;;;;;;16.01;100.00;100245.63;5069535;28;20063;-75
2022/10/13 10:05:42;;;;;;;57.22;36.35;;;;;;;16.14;100.00;100246.00;5072733;28;20480;-77
2022/10/13 10:08:20;;;;;;;54.60;37.53;;;;;;;16.23;100.00;100245.88;5066466;28;20101;-76
2022/10/13 10:10:46;;;;;;;56.42;34.92;;;;;;;16.30;100.00;100251.38;5056012;28;20040;-74
2022/10/13 10:13:13;;;;;;;50.58;35.63;;;;;;;16.36;100.00;100240.06;5056303;28;20396;-75
2022/10/13 10:16:12;;;;;;;54.30;34.75;;;;;;;16.44;100.00;100237.41;5058649;28;20036;-75
2022/10/13 10:18:46;;;;;;;53.72;35.33;;;;;;;16.58;100.00;100244.78;5054571;28;20135;-75
2022/10/13 10:21:46;;;;;;;55.78;36.05;;;;;;;16.69;100.00;100241.81;5058215;28;20037;-76
2022/10/13 10:24:21;;;;;;;52.85;34.63;;;;;;;16.85;100.00;100245.50;5058205;28;20416;-76
2022/10/13 10:26:55;;;;;;;53.30;37.60;;;;;;;16.96;100.00;100238.00;5059015;28;20272;-75
2022/10/13 10:29:36;;;;;;;55.55;37.00;;;;;;;17.04;100.00;100234.47;5054965;28;20124;-75
2022/10/13 10:32:13;;;;;;;48.33;35.30;;;;;;;17.13;100.00;100230.81;5055926;28;20483;-76
2022/10/13 10:34:52;;;;;;;54.30;36.50;;;;;;;17.25;100.00;100236.66;5055232;28;20481;-74
2022/10/13 10:37:24;;;;;;;52.85;37.00;;;;;;;17.34;100.00;100228.44;5056404;28;20024;-76
2022/10/13 10:40:05;;;;;;;57.90;38.08;;;;;;;17.42;100.00;100223.09;5056685;28;20038;-76
2022/10/13 10:42:31;;;;;;;61.90;38.42;;;;;;;17.49;100.00;100224.09;5056776;28;20052;-77
2022/10/13 10:45:00;;;;;;;61.83;38.08;;;;;;;17.56;100.00;100222.38;5058037;28;20550;-76
2022/10/13 10:47:31;;;;;;;53.70;36.65;;;;;;;17.68;100.00;100216.69;5055563;28;20033;-78
2022/10/13 10:50:03;;;;;;;62.28;38.08;;;;;;;17.81;100.00;100217.00;5056200;28;20025;-77
2022/10/13 10:52:55;;;;;;;63.60;40.35;;;;;;;17.92;100.00;100203.25;5056234;28;20186;-77
2022/10/13 10:55:35;;;;;;;58.38;38.15;;;;;;;18.07;100.00;100206.88;5066825;28;20037;-78
2022/10/13 10:58:04;;;;;;;54.90;38.03;;;;;;;18.16;100.00;100195.13;5068972;28;20110;-77
2022/10/13 11:00:40;;;;;;;55.58;37.42;;;;;;;18.27;100.00;100180.53;5069800;28;20032;-78
2022/10/13 11:03:25;;;;;;;61.25;38.78;;;;;;;18.32;100.00;100178.97;5071211;28;20041;-77
2022/10/13 11:05:56;;;;;;;55.75;35.50;;;;;;;18.38;100.00;100175.59;5074111;28;20041;-78
2022/10/13 11:08:38;;;;;;;58.00;38.78;;;;;;;18.41;100.00;100172.59;5072623;28;20045;-79
2022/10/13 11:11:19;;;;;;;66.43;40.47;;;;;;;18.44;100.00;100182.06;5072662;28;20029;-78
2022/10/13 11:13:54;;;;;;;62.00;41.67;;;;;;;18.44;100.00;100175.91;5068927;28;20067;-79
2022/10/13 11:16:36;;;;;;;62.30;39.63;;;;;;;18.40;100.00;100178.94;5072319;28;20044;-77